Decoded Metar for KGNB ( in ) (IATA:) | Meteo·Mobile Aviation Weather
aviador You're here:

KGNB Decoded Metar

in
Report Time2018-08-21 11:30:00
UTC Time2018-08-21 12:13:17
Flight Rules vfr VFR
Wind010° at 03 kt
W.Decomp.*RWY 09: 0.5 kt HW 3 kt LCW
W.Rank010° ranks 26
Current wind is below 010° avg. (4.8)
Visibility9999 m
Phenomena:Rain
Clouds:Broken 060 Hf
Overcast 075 Hf
Expected CloudBase > 400 ft AGL from Temp-Dew spread
Ceiling6,000 ft
Temp09°C
Dew Point08°C (94% RH)
AAT7.5°C
QNH1030 hPa
Raw Report
KGNB 211130Z AUTO 01003KT 10SM RA BKN060 OVC075 09/08 A3043 RMK
AO2 T00910081=

Extra information for KGNB:More info

Social comments